createdAt,value
2018-03-02T00:01:23.763Z,18.10
2018-03-02T00:03:54.074Z,23.40
2018-03-02T00:06:24.914Z,19.23
2018-03-02T00:08:56.866Z,19.60
2018-03-02T00:11:28.058Z,20.67
2018-03-02T00:13:59.229Z,17.73
2018-03-02T00:16:30.181Z,19.30
2018-03-02T00:19:00.154Z,30.90
2018-03-02T00:21:30.662Z,25.63
2018-03-02T00:24:01.554Z,17.80
2018-03-02T00:26:31.580Z,20.57
2018-03-02T00:29:01.594Z,21.10
2018-03-02T00:34:06.656Z,21.13
2018-03-02T00:36:36.678Z,24.70
2018-03-02T00:39:08.056Z,20.70
2018-03-02T00:41:38.351Z,20.27
2018-03-02T00:44:08.514Z,18.30
2018-03-02T00:46:39.375Z,17.90
2018-03-02T00:49:09.529Z,21.40
2018-03-02T00:51:39.941Z,24.83
2018-03-02T00:54:10.173Z,21.20
2018-03-02T00:56:40.872Z,23.30
2018-03-02T00:59:11.119Z,19.00
2018-03-02T01:01:42.344Z,17.97
2018-03-02T01:04:12.840Z,15.80
2018-03-02T01:06:45.062Z,18.10
2018-03-02T01:09:15.216Z,19.53
2018-03-02T01:11:45.198Z,16.87
2018-03-02T01:14:15.339Z,18.10
2018-03-02T01:16:45.284Z,17.53
2018-03-02T01:19:16.508Z,16.93
2018-03-02T01:21:46.729Z,23.23
2018-03-02T01:24:17.186Z,15.53
2018-03-02T01:26:48.290Z,22.20
2018-03-02T01:29:18.475Z,19.53
2018-03-02T01:31:48.532Z,20.47
2018-03-02T01:34:18.866Z,16.70
2018-03-02T01:36:49.253Z,16.93
2018-03-02T01:39:19.489Z,23.27
2018-03-02T01:41:49.839Z,17.80
2018-03-02T01:44:20.368Z,18.60
2018-03-02T01:46:50.790Z,16.33
2018-03-02T01:49:20.927Z,18.50
2018-03-02T01:51:52.247Z,19.03
2018-03-02T01:54:22.662Z,16.70
2018-03-02T01:56:52.434Z,16.57
2018-03-02T01:59:23.653Z,21.43
2018-03-02T02:01:53.631Z,20.40
2018-03-02T02:04:23.719Z,20.73
2018-03-02T02:06:55.063Z,15.97
2018-03-02T02:09:26.563Z,21.97
2018-03-02T02:11:56.838Z,15.17
2018-03-02T02:14:27.702Z,16.50
2018-03-02T02:16:57.937Z,24.20
2018-03-02T02:19:28.263Z,18.77
2018-03-02T02:21:58.718Z,14.77
2018-03-02T02:24:29.128Z,18.50
2018-03-02T02:27:00.152Z,16.70
2018-03-02T02:29:30.615Z,15.50
2018-03-02T02:32:00.694Z,13.40
2018-03-02T02:34:30.967Z,16.00
2018-03-02T02:37:01.201Z,18.03
2018-03-02T02:39:32.253Z,17.07
2018-03-02T02:42:02.658Z,18.17
2018-03-02T02:44:33.590Z,18.80
2018-03-02T02:47:03.785Z,14.53
2018-03-02T02:49:34.952Z,12.83
2018-03-02T02:52:05.107Z,12.10
2018-03-02T02:54:35.373Z,12.50
2018-03-02T02:57:06.546Z,13.07
2018-03-02T02:59:37.088Z,11.43
2018-03-02T03:02:08.004Z,12.63
2018-03-02T03:04:38.291Z,16.07
2018-03-02T03:07:09.166Z,11.60
2018-03-02T03:09:39.744Z,11.73
2018-03-02T03:12:09.986Z,10.37
2018-03-02T03:14:39.813Z,11.33
2018-03-02T03:17:10.150Z,11.33
2018-03-02T03:19:39.997Z,15.83
2018-03-02T03:22:11.123Z,11.23
2018-03-02T03:24:42.113Z,19.03
2018-03-02T03:27:12.464Z,17.70
2018-03-02T03:29:42.901Z,15.80
2018-03-02T03:32:13.082Z,15.07
2018-03-02T03:34:43.327Z,15.60
2018-03-02T03:37:13.604Z,16.60
2018-03-02T03:39:44.026Z,15.63
2018-03-02T03:42:14.287Z,14.30
2018-03-02T03:44:44.471Z,21.70
2018-03-02T03:47:14.733Z,17.37
2018-03-02T03:49:45.078Z,18.10
2018-03-02T03:52:15.549Z,17.40
2018-03-02T03:54:46.692Z,15.73
2018-03-02T03:57:17.240Z,15.33
2018-03-02T03:59:47.586Z,13.73
2018-03-02T04:02:19.146Z,15.97
2018-03-02T04:04:49.610Z,16.03
2018-03-02T04:07:20.686Z,18.37
2018-03-02T04:09:50.716Z,17.10
2018-03-02T04:12:21.008Z,21.63
2018-03-02T04:14:51.336Z,15.40
2018-03-02T04:17:21.613Z,17.73
2018-03-02T04:19:51.901Z,15.57
2018-03-02T04:22:22.002Z,19.53
2018-03-02T04:24:52.144Z,14.63
2018-03-02T04:27:21.994Z,14.80
2018-03-02T04:29:53.197Z,17.90
2018-03-02T04:32:23.674Z,15.70
2018-03-02T04:34:53.769Z,15.47
2018-03-02T04:37:24.089Z,15.20
2018-03-02T04:39:54.186Z,13.80
2018-03-02T04:42:24.457Z,14.43
2018-03-02T04:44:54.629Z,15.10
2018-03-02T04:47:24.991Z,15.37
2018-03-02T04:49:55.303Z,16.33
2018-03-02T04:52:25.499Z,13.90
2018-03-02T04:54:56.015Z,15.23
2018-03-02T04:57:26.351Z,13.50
2018-03-02T04:59:56.578Z,15.53
2018-03-02T05:02:26.914Z,14.40
2018-03-02T05:04:56.816Z,16.33
2018-03-02T05:07:26.945Z,18.73
2018-03-02T05:09:58.106Z,15.27
2018-03-02T05:12:28.339Z,13.90
2018-03-02T05:14:58.272Z,13.83
2018-03-02T05:17:28.536Z,13.40
2018-03-02T05:19:58.839Z,13.07
2018-03-02T05:22:28.906Z,16.90
2018-03-02T05:24:59.075Z,13.93
2018-03-02T05:27:28.989Z,14.37
2018-03-02T05:29:59.910Z,18.73
2018-03-02T05:32:30.955Z,13.90
2018-03-02T05:35:01.855Z,15.37
2018-03-02T05:37:31.742Z,15.43
2018-03-02T05:40:01.940Z,14.47
2018-03-02T05:42:32.044Z,17.40
2018-03-02T05:45:02.827Z,15.80
2018-03-02T05:47:32.778Z,18.50
2018-03-02T05:50:03.166Z,19.30
2018-03-02T05:52:33.132Z,17.53
2018-03-02T05:55:04.599Z,18.13
2018-03-02T05:57:35.460Z,21.27
2018-03-02T06:00:05.600Z,18.53
2018-03-02T06:02:36.381Z,16.20
2018-03-02T06:05:07.561Z,18.30
2018-03-02T06:07:37.790Z,19.67
2018-03-02T06:10:09.118Z,19.30
2018-03-02T06:12:40.111Z,20.90
2018-03-02T06:15:10.394Z,22.37
2018-03-02T06:17:40.619Z,22.00
2018-03-02T06:20:10.831Z,17.47
2018-03-02T06:22:41.207Z,17.00
2018-03-02T06:25:11.276Z,17.13
2018-03-02T06:27:41.231Z,16.07
2018-03-02T06:30:11.738Z,17.20
2018-03-02T06:32:42.202Z,15.90
2018-03-02T06:35:12.538Z,24.50
2018-03-02T06:37:43.422Z,17.73
2018-03-02T06:40:13.685Z,18.60
2018-03-02T06:42:43.872Z,17.40
2018-03-02T06:45:14.101Z,15.40
2018-03-02T06:47:44.416Z,16.70
2018-03-02T06:50:14.727Z,15.67
2018-03-02T06:52:45.147Z,17.63
2018-03-02T06:55:15.744Z,15.23
2018-03-02T06:57:46.868Z,13.70
2018-03-02T07:00:17.066Z,13.27
2018-03-02T07:02:47.343Z,13.07
2018-03-02T07:05:18.225Z,12.97
2018-03-02T07:07:48.410Z,16.10
2018-03-02T07:10:20.002Z,15.20
2018-03-02T07:12:50.301Z,15.60
2018-03-02T07:15:20.555Z,13.00
2018-03-02T07:17:51.841Z,13.27
2018-03-02T07:20:22.531Z,16.40
2018-03-02T07:22:52.792Z,15.80
2018-03-02T07:25:23.768Z,17.40
2018-03-02T07:27:55.321Z,13.93
2018-03-02T07:30:25.443Z,14.83
2018-03-02T07:32:56.426Z,13.27
2018-03-02T07:35:26.418Z,15.10
2018-03-02T07:37:56.638Z,16.67
2018-03-02T07:40:26.786Z,19.73
2018-03-02T07:42:57.022Z,15.90
2018-03-02T07:45:27.948Z,12.53
2018-03-02T07:47:58.383Z,16.43
2018-03-02T07:50:28.723Z,16.57
2018-03-02T07:52:59.695Z,16.47
2018-03-02T07:55:29.946Z,14.07
2018-03-02T07:58:00.826Z,12.97
2018-03-02T08:00:31.179Z,15.70
2018-03-02T08:03:01.595Z,12.17
2018-03-02T08:05:32.126Z,13.90
2018-03-02T08:08:02.560Z,13.40
2018-03-02T08:10:32.850Z,12.57
2018-03-02T08:13:04.885Z,11.47
2018-03-02T08:15:34.982Z,12.20
2018-03-02T08:18:04.808Z,10.50
2018-03-02T08:20:36.753Z,11.63
2018-03-02T08:23:07.211Z,9.83
2018-03-02T08:25:37.318Z,11.57
2018-03-02T08:28:08.420Z,11.00
2018-03-02T08:30:38.631Z,12.23
2018-03-02T08:33:08.968Z,10.00
2018-03-02T08:35:39.083Z,13.90
2018-03-02T08:38:10.274Z,9.90
2018-03-02T08:40:42.111Z,13.83
2018-03-02T08:43:12.479Z,21.80
2018-03-02T08:45:43.443Z,22.07
2018-03-02T08:48:13.494Z,15.43
2018-03-02T08:50:43.730Z,18.30
2018-03-02T08:53:13.709Z,17.90
2018-03-02T08:55:43.859Z,17.50
2018-03-02T08:58:14.424Z,16.43
2018-03-02T09:00:45.333Z,15.67
2018-03-02T09:03:15.832Z,22.27
2018-03-02T09:05:46.020Z,20.90
2018-03-02T09:08:16.938Z,15.83
2018-03-02T09:10:47.049Z,16.60
2018-03-02T09:13:17.932Z,19.00
2018-03-02T09:15:48.166Z,16.70
2018-03-02T09:18:18.316Z,15.30
2018-03-02T09:20:48.504Z,16.00
2018-03-02T09:23:18.599Z,14.27
2018-03-02T09:25:49.547Z,13.40
2018-03-02T09:28:20.317Z,16.53
2018-03-02T09:30:50.727Z,13.77
2018-03-02T09:33:20.882Z,15.27
2018-03-02T09:35:51.272Z,16.17
2018-03-02T09:38:21.109Z,13.20
2018-03-02T09:40:52.224Z,18.47
2018-03-02T09:43:22.730Z,14.20
2018-03-02T09:45:54.109Z,13.27
2018-03-02T09:48:24.414Z,13.60
2018-03-02T09:50:54.651Z,15.03
2018-03-02T09:53:25.365Z,13.43
2018-03-02T09:55:56.626Z,12.40
2018-03-02T09:58:26.806Z,15.50
2018-03-02T10:00:56.572Z,12.77
2018-03-02T10:03:26.538Z,13.70
2018-03-02T10:05:57.291Z,13.13
2018-03-02T10:08:27.422Z,14.00
2018-03-02T10:10:57.895Z,14.03
2018-03-02T10:13:27.961Z,13.33
2018-03-02T10:15:58.947Z,12.30
2018-03-02T10:18:28.858Z,13.53
2018-03-02T10:20:59.139Z,12.53
2018-03-02T10:23:29.853Z,13.77
2018-03-02T10:26:01.005Z,14.83
2018-03-02T10:28:32.064Z,12.03
2018-03-02T10:31:03.155Z,11.40
2018-03-02T10:33:33.454Z,12.27
2018-03-02T10:36:03.814Z,17.80
2018-03-02T10:38:33.611Z,11.03
2018-03-02T10:41:03.898Z,10.67
2018-03-02T10:43:33.909Z,11.23
2018-03-02T10:46:04.153Z,11.63
2018-03-02T10:48:34.501Z,11.13
2018-03-02T10:51:05.477Z,14.97
2018-03-02T10:53:36.248Z,14.20
2018-03-02T10:56:06.009Z,13.90
2018-03-02T10:58:36.301Z,21.17
2018-03-02T11:01:11.421Z,17.13
2018-03-02T11:03:46.932Z,14.50
2018-03-02T11:06:17.192Z,15.20
2018-03-02T11:08:54.733Z,19.90
2018-03-02T11:11:24.988Z,15.20
2018-03-02T11:13:55.387Z,15.17
2018-03-02T11:16:26.173Z,18.33
2018-03-02T11:18:56.446Z,15.80
2018-03-02T11:21:28.154Z,15.70
2018-03-02T11:23:57.935Z,16.10
2018-03-02T11:26:28.889Z,14.33
2018-03-02T11:28:59.007Z,16.67
2018-03-02T11:31:29.387Z,15.47
2018-03-02T11:34:00.288Z,16.87
2018-03-02T11:36:30.495Z,19.13
2018-03-02T11:39:00.959Z,24.37
2018-03-02T11:41:31.262Z,18.60
2018-03-02T11:44:02.225Z,18.47
2018-03-02T11:46:32.718Z,18.80
2018-03-02T11:49:03.814Z,19.20
2018-03-02T11:51:34.876Z,17.37
2018-03-02T11:54:05.746Z,15.87
2018-03-02T11:56:36.066Z,14.90
2018-03-02T11:59:06.081Z,19.73
2018-03-02T12:01:36.201Z,15.73
2018-03-02T12:04:06.292Z,16.90
2018-03-02T12:06:36.638Z,14.63
2018-03-02T12:09:06.603Z,18.20
2018-03-02T12:11:37.460Z,14.93
2018-03-02T12:14:08.075Z,13.67
2018-03-02T12:16:39.255Z,15.33
2018-03-02T12:19:10.533Z,19.13
2018-03-02T12:21:41.433Z,15.47
2018-03-02T12:24:12.798Z,21.27
2018-03-02T12:26:43.785Z,16.37
2018-03-02T12:29:14.719Z,15.27
2018-03-02T12:31:44.677Z,15.70
2018-03-02T12:34:14.850Z,16.50
2018-03-02T12:36:45.077Z,17.73
2018-03-02T12:39:15.851Z,35.80
2018-03-02T12:41:46.666Z,39.33
2018-03-02T12:44:17.371Z,23.90
2018-03-02T12:46:48.327Z,23.73
2018-03-02T12:49:19.412Z,22.70
2018-03-02T12:51:49.785Z,19.23
2018-03-02T12:54:20.062Z,45.57
2018-03-02T12:56:51.568Z,19.97
2018-03-02T12:59:21.981Z,17.97
2018-03-02T13:01:52.350Z,20.40
2018-03-02T13:04:22.528Z,18.70
2018-03-02T13:06:52.695Z,20.47
2018-03-02T13:09:22.898Z,19.53
2018-03-02T13:11:53.856Z,17.33
2018-03-02T13:14:24.802Z,17.93
2018-03-02T13:16:56.062Z,17.20
2018-03-02T13:19:26.406Z,16.93
2018-03-02T13:21:56.806Z,16.80
2018-03-02T13:24:26.979Z,18.20
2018-03-02T13:27:08.235Z,19.83
2018-03-02T13:29:39.097Z,25.73
2018-03-02T13:32:09.044Z,17.57
2018-03-02T13:34:50.565Z,17.07
2018-03-02T13:37:20.762Z,19.20
2018-03-02T13:40:02.183Z,19.70
2018-03-02T13:42:32.428Z,17.57
2018-03-02T13:45:02.909Z,20.73
2018-03-02T13:50:51.037Z,17.47
2018-03-02T13:53:21.317Z,19.00
2018-03-02T13:55:51.531Z,16.80
2018-03-02T13:58:22.377Z,16.90
2018-03-02T14:00:52.727Z,20.50
2018-03-02T14:03:34.721Z,17.87
2018-03-02T14:06:05.665Z,20.20
2018-03-02T14:08:37.019Z,17.10
2018-03-02T14:11:08.079Z,18.43
2018-03-02T14:13:38.128Z,17.87
2018-03-02T14:16:08.249Z,17.90
2018-03-02T14:18:38.026Z,25.17
2018-03-02T14:21:08.142Z,17.73
2018-03-02T14:23:38.439Z,18.23
2018-03-02T14:26:09.199Z,17.67
2018-03-02T14:28:39.626Z,18.37
2018-03-02T14:31:09.699Z,18.40
2018-03-02T14:33:39.817Z,19.80
2018-03-02T14:36:09.937Z,19.17
2018-03-02T14:38:40.121Z,17.17
2018-03-02T14:41:10.161Z,19.23
2018-03-02T14:43:40.448Z,17.40
2018-03-02T14:46:11.593Z,18.03
2018-03-02T14:48:42.049Z,18.33
2018-03-02T14:51:12.462Z,19.90
2018-03-02T14:53:43.784Z,28.00
2018-03-02T14:56:14.235Z,17.70
2018-03-02T14:58:44.702Z,26.30
2018-03-02T15:01:14.536Z,24.00
2018-03-02T15:03:45.553Z,19.33
2018-03-02T15:06:16.376Z,17.23
2018-03-02T15:08:47.250Z,22.20
2018-03-02T15:11:18.323Z,18.70
2018-03-02T15:13:48.786Z,18.50
2018-03-02T15:16:19.226Z,18.73
2018-03-02T15:18:49.476Z,18.67
2018-03-02T15:21:20.095Z,18.27
2018-03-02T15:23:50.982Z,17.70
2018-03-02T15:26:21.269Z,17.37
2018-03-02T15:28:51.381Z,26.03
2018-03-02T15:31:22.347Z,24.07
2018-03-02T15:33:52.670Z,20.97
2018-03-02T15:36:22.887Z,20.73
2018-03-02T15:38:52.639Z,23.73
2018-03-02T15:41:23.311Z,22.97
2018-03-02T15:43:53.897Z,22.17
2018-03-02T15:46:24.136Z,25.57
2018-03-02T15:48:55.722Z,21.40
2018-03-02T15:51:26.999Z,21.10
2018-03-02T15:53:56.869Z,21.43
2018-03-02T15:56:27.731Z,22.30
2018-03-02T15:58:58.103Z,21.60
2018-03-02T16:01:28.532Z,25.30
2018-03-02T16:03:58.811Z,27.10
2018-03-02T16:06:29.046Z,20.90
2018-03-02T16:08:59.252Z,22.17
2018-03-02T16:11:29.677Z,22.80
2018-03-02T16:14:00.410Z,26.60
2018-03-02T16:16:30.575Z,27.53
2018-03-02T16:19:00.940Z,23.10
2018-03-02T16:21:31.925Z,23.87
2018-03-02T16:24:02.183Z,25.00
2018-03-02T16:26:32.279Z,26.17
2018-03-02T16:29:02.451Z,24.20
2018-03-02T16:31:33.116Z,23.33
2018-03-02T16:34:03.533Z,24.87
2018-03-02T16:36:33.454Z,22.43
2018-03-02T16:39:03.863Z,28.87
2018-03-02T16:41:34.217Z,24.93
2018-03-02T16:44:04.753Z,23.80
2018-03-02T16:46:35.128Z,23.80
2018-03-02T16:49:06.150Z,21.13
2018-03-02T16:51:37.263Z,24.10
2018-03-02T16:54:07.812Z,23.30
2018-03-02T16:56:38.038Z,22.30
2018-03-02T16:59:07.943Z,22.83
2018-03-02T17:01:38.670Z,21.57
2018-03-02T17:04:09.464Z,21.13
2018-03-02T17:06:39.725Z,24.10
2018-03-02T17:09:09.905Z,21.57
2018-03-02T17:11:40.065Z,25.27
2018-03-02T17:14:10.319Z,23.33
2018-03-02T17:16:40.605Z,31.53
2018-03-02T17:19:10.766Z,23.03
2018-03-02T17:21:41.349Z,21.50
2018-03-02T17:24:11.763Z,26.27
2018-03-02T17:26:42.188Z,23.43
2018-03-02T17:29:12.424Z,26.47
2018-03-02T17:31:42.631Z,23.17
2018-03-02T17:34:12.840Z,25.83
2018-03-02T17:36:43.148Z,22.33
2018-03-02T17:39:14.211Z,28.07
2018-03-02T17:41:44.558Z,24.10
2018-03-02T17:44:14.643Z,26.20
2018-03-02T17:46:44.895Z,25.83
2018-03-02T17:49:15.153Z,20.97
2018-03-02T17:51:45.546Z,27.60
2018-03-02T17:54:16.065Z,21.37
2018-03-02T17:56:45.818Z,18.70
2018-03-02T17:59:16.583Z,17.60
2018-03-02T18:01:47.546Z,17.87
2018-03-02T18:04:18.736Z,14.73
2018-03-02T18:06:48.575Z,12.23
2018-03-02T18:09:20.069Z,10.03
2018-03-02T18:11:51.024Z,11.70
2018-03-02T18:14:21.215Z,10.80
2018-03-02T18:16:51.166Z,8.27
2018-03-02T18:19:21.592Z,9.77
2018-03-02T18:21:51.369Z,7.70
2018-03-02T18:24:21.781Z,11.07
2018-03-02T18:26:52.698Z,9.97
2018-03-02T18:29:23.668Z,8.37
2018-03-02T18:31:53.812Z,7.40
2018-03-02T18:34:24.355Z,10.40
2018-03-02T18:36:54.626Z,12.97
2018-03-02T18:39:25.032Z,8.97
2018-03-02T18:41:56.008Z,7.00
2018-03-02T18:44:26.954Z,7.07
2018-03-02T18:46:57.560Z,6.13
2018-03-02T18:49:27.475Z,7.80
2018-03-02T18:51:57.924Z,6.83
2018-03-02T18:54:28.331Z,9.23
2018-03-02T18:56:58.676Z,9.23
2018-03-02T18:59:28.792Z,8.53
2018-03-02T19:01:59.212Z,8.20
2018-03-02T19:04:28.926Z,5.67
2018-03-02T19:06:58.924Z,7.90
2018-03-02T19:09:30.241Z,7.83
2018-03-02T19:12:00.623Z,10.37
2018-03-02T19:14:30.739Z,7.50
2018-03-02T19:17:00.720Z,7.13
2018-03-02T19:19:31.797Z,9.10
2018-03-02T19:22:02.131Z,8.10
2018-03-02T19:24:32.292Z,9.50
2018-03-02T19:27:02.564Z,8.67
2018-03-02T19:29:33.500Z,13.97
2018-03-02T19:32:03.772Z,14.60
2018-03-02T19:34:34.236Z,15.03
2018-03-02T19:37:05.120Z,16.53
2018-03-02T19:39:35.604Z,15.30
2018-03-02T19:42:06.142Z,12.50
2018-03-02T19:44:36.554Z,14.37
2018-03-02T19:47:06.835Z,16.80
2018-03-02T19:49:37.130Z,9.50
2018-03-02T19:52:07.314Z,12.03
2018-03-02T19:54:38.464Z,12.40
2018-03-02T19:57:19.842Z,10.60
2018-03-02T19:59:50.464Z,14.10
2018-03-02T20:02:21.556Z,13.00
2018-03-02T20:04:51.829Z,10.77
2018-03-02T20:07:22.674Z,9.83
2018-03-02T20:09:53.708Z,13.10
2018-03-02T20:12:24.654Z,9.03
2018-03-02T20:14:55.757Z,8.27
2018-03-02T20:17:25.960Z,7.53
2018-03-02T20:19:56.296Z,9.43
2018-03-02T20:22:26.574Z,7.60
2018-03-02T20:24:57.569Z,10.40
2018-03-02T20:27:27.846Z,9.23
2018-03-02T20:29:58.193Z,10.20
2018-03-02T20:32:29.090Z,9.10
2018-03-02T20:35:00.198Z,8.87
2018-03-02T20:37:35.508Z,7.97
2018-03-02T20:40:05.866Z,9.03
2018-03-02T20:42:36.279Z,9.53
2018-03-02T20:45:06.740Z,11.10
2018-03-02T20:47:36.947Z,14.03
2018-03-02T20:50:06.866Z,11.20
2018-03-02T20:52:37.370Z,8.13
2018-03-02T20:55:07.863Z,10.27
2018-03-02T20:57:38.260Z,8.10
2018-03-02T21:00:08.549Z,7.27
2018-03-02T21:02:38.471Z,8.40
2018-03-02T21:05:08.541Z,9.77
2018-03-02T21:07:40.014Z,9.90
2018-03-02T21:10:10.261Z,11.63
2018-03-02T21:12:40.773Z,9.30
2018-03-02T21:15:10.952Z,8.47
2018-03-02T21:17:41.945Z,7.00
2018-03-02T21:20:12.227Z,10.33
2018-03-02T21:22:43.079Z,7.80
2018-03-02T21:25:13.393Z,7.03
2018-03-02T21:27:43.770Z,7.80
2018-03-02T21:30:13.922Z,8.57
2018-03-02T21:32:44.067Z,10.60
2018-03-02T21:35:14.402Z,8.50
2018-03-02T21:37:44.634Z,10.73
2018-03-02T21:40:15.053Z,10.43
2018-03-02T21:42:45.237Z,7.90
2018-03-02T21:45:16.567Z,8.87
2018-03-02T21:47:47.534Z,9.67
2018-03-02T21:50:18.685Z,8.20
2018-03-02T21:52:49.641Z,8.10
2018-03-02T21:55:19.896Z,7.00
2018-03-02T21:57:50.242Z,17.40
2018-03-02T22:00:20.729Z,8.10
2018-03-02T22:02:50.550Z,12.90
2018-03-02T22:05:20.939Z,8.77
2018-03-02T22:07:52.192Z,13.73
2018-03-02T22:10:22.399Z,7.20
2018-03-02T22:12:53.471Z,9.27
2018-03-02T22:15:23.893Z,7.43
2018-03-02T22:17:54.255Z,7.87
2018-03-02T22:20:24.809Z,14.27
2018-03-02T22:22:55.707Z,8.70
2018-03-02T22:25:25.829Z,10.97
2018-03-02T22:27:56.030Z,7.20
2018-03-02T22:30:26.921Z,8.43
2018-03-02T22:32:56.890Z,7.70
2018-03-02T22:35:27.198Z,6.67
2018-03-02T22:37:57.615Z,10.27
2018-03-02T22:40:28.303Z,14.50
2018-03-02T22:42:58.019Z,7.73
2018-03-02T22:45:28.322Z,8.90
2018-03-02T22:47:58.419Z,11.37
2018-03-02T22:50:28.767Z,15.47
2018-03-02T22:52:58.847Z,10.37
2018-03-02T22:55:29.064Z,7.70
2018-03-02T22:57:59.656Z,7.20
2018-03-02T23:00:29.784Z,13.77
2018-03-02T23:02:59.868Z,9.33
2018-03-02T23:05:30.058Z,9.20
2018-03-02T23:07:59.957Z,9.40
2018-03-02T23:10:31.092Z,8.47
2018-03-02T23:13:01.889Z,8.80
2018-03-02T23:15:32.058Z,7.27
2018-03-02T23:18:02.854Z,7.33
2018-03-02T23:20:33.088Z,11.90
2018-03-02T23:23:02.993Z,9.13
2018-03-02T23:25:33.321Z,8.47
2018-03-02T23:28:03.457Z,8.33
2018-03-02T23:30:33.514Z,10.47
2018-03-02T23:33:03.781Z,8.90
2018-03-02T23:35:34.134Z,9.03
2018-03-02T23:38:05.146Z,9.03
2018-03-02T23:40:35.745Z,9.17
2018-03-02T23:43:06.102Z,10.30
2018-03-02T23:45:37.168Z,10.77
2018-03-02T23:48:07.099Z,8.50
2018-03-02T23:50:37.480Z,9.20
2018-03-02T23:53:07.986Z,14.20
2018-03-02T23:55:38.492Z,13.10
2018-03-02T23:58:08.998Z,11.53
